createdAt,value
2018-07-14T00:01:46.449Z,9.53
2018-07-14T00:04:22.148Z,10.90
2018-07-14T00:06:55.854Z,9.57
2018-07-14T00:09:33.296Z,9.02
2018-07-14T00:12:07.400Z,11.63
2018-07-14T00:14:39.897Z,7.63
2018-07-14T00:17:12.480Z,7.90
2018-07-14T00:19:45.187Z,9.07
2018-07-14T00:22:18.460Z,8.37
2018-07-14T00:24:51.512Z,7.43
2018-07-14T00:27:25.310Z,9.00
2018-07-14T00:29:57.799Z,10.03
2018-07-14T00:32:34.842Z,8.47
2018-07-14T00:35:10.709Z,8.47
2018-07-14T00:37:43.860Z,12.37
2018-07-14T00:40:16.347Z,8.83
2018-07-14T00:42:49.304Z,9.33
2018-07-14T00:45:22.637Z,8.90
2018-07-14T00:47:54.988Z,8.43
2018-07-14T00:50:28.792Z,9.03
2018-07-14T00:53:03.232Z,9.25
2018-07-14T00:55:37.069Z,8.37
2018-07-14T00:58:09.810Z,9.97
2018-07-14T01:00:42.457Z,7.60
2018-07-14T01:03:18.912Z,10.13
2018-07-14T01:05:52.817Z,8.77
2018-07-14T01:08:26.896Z,11.00
2018-07-14T01:11:00.393Z,10.27
2018-07-14T01:13:34.093Z,9.63
2018-07-14T01:16:08.203Z,12.57
2018-07-14T01:18:40.677Z,11.90
2018-07-14T01:21:13.391Z,10.97
2018-07-14T01:23:49.303Z,8.63
2018-07-14T01:26:21.668Z,11.90
2018-07-14T01:28:54.463Z,8.87
2018-07-14T01:31:26.863Z,8.87
2018-07-14T01:33:59.572Z,10.83
2018-07-14T01:36:32.492Z,8.50
2018-07-14T01:39:06.331Z,10.70
2018-07-14T01:41:38.733Z,9.50
2018-07-14T01:44:11.597Z,9.63
2018-07-14T01:46:43.924Z,13.03
2018-07-14T01:49:17.038Z,9.73
2018-07-14T01:51:49.733Z,9.60
2018-07-14T01:54:23.336Z,9.20
2018-07-14T01:56:55.960Z,9.77
2018-07-14T01:59:28.862Z,9.10
2018-07-14T02:02:01.254Z,9.07
2018-07-14T02:04:34.848Z,9.52
2018-07-14T02:07:09.561Z,9.90
2018-07-14T02:09:42.904Z,13.37
2018-07-14T02:12:15.432Z,11.90
2018-07-14T02:14:48.230Z,12.70
2018-07-14T02:17:21.959Z,8.83
2018-07-14T02:19:54.502Z,9.63
2018-07-14T02:22:27.166Z,10.43
2018-07-14T02:24:59.816Z,10.67
2018-07-14T02:27:32.420Z,9.73
2018-07-14T02:30:06.650Z,9.30
2018-07-14T02:32:39.195Z,9.67
2018-07-14T02:35:11.781Z,13.73
2018-07-14T02:37:45.554Z,11.10
2018-07-14T02:40:18.423Z,11.63
2018-07-14T02:42:50.792Z,11.07
2018-07-14T02:45:24.644Z,10.57
2018-07-14T02:48:00.118Z,11.03
2018-07-14T02:50:32.580Z,11.23
2018-07-14T02:53:13.672Z,12.30
2018-07-14T02:55:47.847Z,11.67
2018-07-14T02:58:21.835Z,12.05
2018-07-14T03:00:54.851Z,10.77
2018-07-14T03:03:27.426Z,11.53
2018-07-14T03:06:00.773Z,11.17
2018-07-14T03:08:33.580Z,14.00
2018-07-14T03:11:06.869Z,13.03
2018-07-14T03:13:39.650Z,11.63
2018-07-14T03:16:13.390Z,16.53
2018-07-14T03:18:45.772Z,13.83
2018-07-14T03:21:18.295Z,11.13
2018-07-14T03:23:51.128Z,13.30
2018-07-14T03:26:24.029Z,13.53
2018-07-14T03:28:56.432Z,11.83
2018-07-14T03:31:29.253Z,12.13
2018-07-14T03:34:01.784Z,14.70
2018-07-14T03:36:34.523Z,16.10
2018-07-14T03:39:09.313Z,14.53
2018-07-14T03:41:42.017Z,14.90
2018-07-14T03:44:14.568Z,14.20
2018-07-14T03:46:47.418Z,14.87
2018-07-14T03:49:19.932Z,13.47
2018-07-14T03:51:52.821Z,12.67
2018-07-14T03:54:25.712Z,14.32
2018-07-14T03:56:58.397Z,13.68
2018-07-14T03:59:30.841Z,13.77
2018-07-14T04:02:03.761Z,11.67
2018-07-14T04:04:36.213Z,13.63
2018-07-14T04:07:08.785Z,15.13
2018-07-14T04:09:41.578Z,15.70
2018-07-14T04:12:24.647Z,13.30
2018-07-14T04:14:57.193Z,14.97
2018-07-14T04:17:29.954Z,15.33
2018-07-14T04:20:02.617Z,15.77
2018-07-14T04:22:35.141Z,14.13
2018-07-14T04:25:07.892Z,12.60
2018-07-14T04:27:40.307Z,13.10
2018-07-14T04:30:15.368Z,14.17
2018-07-14T04:32:48.316Z,14.53
2018-07-14T04:35:20.868Z,13.50
2018-07-14T04:37:53.463Z,14.10
2018-07-14T04:40:26.303Z,19.77
2018-07-14T04:42:58.812Z,13.00
2018-07-14T04:45:31.364Z,14.00
2018-07-14T04:48:05.885Z,15.77
2018-07-14T04:50:38.699Z,15.37
2018-07-14T04:53:12.083Z,14.33
2018-07-14T04:55:44.709Z,15.30
2018-07-14T04:58:17.191Z,15.37
2018-07-14T05:00:49.708Z,15.43
2018-07-14T05:03:22.673Z,13.70
2018-07-14T05:05:55.120Z,17.43
2018-07-14T05:08:27.653Z,14.77
2018-07-14T05:11:00.757Z,13.73
2018-07-14T05:13:34.248Z,16.13
2018-07-14T05:16:10.632Z,13.98
2018-07-14T05:18:43.672Z,13.47
2018-07-14T05:21:16.438Z,12.77
2018-07-14T05:23:48.890Z,15.50
2018-07-14T05:26:21.540Z,15.27
2018-07-14T05:28:55.477Z,15.83
2018-07-14T05:31:27.813Z,13.77
2018-07-14T05:34:00.329Z,11.13
2018-07-14T05:36:34.803Z,11.63
2018-07-14T05:39:08.838Z,12.07
2018-07-14T05:41:41.813Z,13.00
2018-07-14T05:44:14.548Z,12.70
2018-07-14T05:46:51.333Z,13.60
2018-07-14T05:49:26.557Z,11.87
2018-07-14T05:52:01.571Z,12.60
2018-07-14T05:54:35.637Z,14.80
2018-07-14T05:57:08.829Z,13.57
2018-07-14T05:59:42.268Z,13.77
2018-07-14T06:02:15.390Z,14.23
2018-07-14T06:04:48.281Z,13.87
2018-07-14T06:07:21.323Z,12.03
2018-07-14T06:09:54.060Z,12.83
2018-07-14T06:12:27.262Z,13.40
2018-07-14T06:15:04.154Z,11.17
2018-07-14T06:17:36.913Z,12.00
2018-07-14T06:20:10.426Z,9.77
2018-07-14T06:22:42.937Z,8.37
2018-07-14T06:25:15.863Z,9.57
2018-07-14T06:27:48.670Z,9.60
2018-07-14T06:30:21.698Z,9.47
2018-07-14T06:32:55.070Z,10.00
2018-07-14T06:35:30.247Z,8.20
2018-07-14T06:38:02.894Z,8.07
2018-07-14T06:40:35.398Z,9.07
2018-07-14T06:43:08.405Z,8.80
2018-07-14T06:45:40.941Z,9.47
2018-07-14T06:48:15.696Z,13.83
2018-07-14T06:50:48.254Z,9.30
2018-07-14T06:53:20.782Z,9.73
2018-07-14T06:55:55.609Z,8.67
2018-07-14T06:58:30.626Z,8.33
2018-07-14T07:01:03.232Z,8.40
2018-07-14T07:03:36.041Z,11.80
2018-07-14T07:06:10.130Z,8.30
2018-07-14T07:08:44.458Z,7.67
2018-07-14T07:11:18.635Z,13.18
2018-07-14T07:13:53.753Z,8.67
2018-07-14T07:16:26.279Z,8.03
2018-07-14T07:18:59.343Z,8.70
2018-07-14T07:21:33.215Z,8.60
2018-07-14T07:24:05.945Z,8.65
2018-07-14T07:26:38.451Z,8.63
2018-07-14T07:29:15.121Z,10.37
2018-07-14T07:31:52.563Z,10.43
2018-07-14T07:34:40.953Z,10.53
2018-07-14T07:37:41.937Z,9.37
2018-07-14T07:40:31.545Z,8.93
2018-07-14T07:43:11.316Z,8.77
2018-07-14T07:45:47.064Z,7.57
2018-07-14T07:48:26.354Z,9.93
2018-07-14T07:51:12.657Z,7.83
2018-07-14T07:53:50.348Z,9.27
2018-07-14T07:56:23.803Z,8.80
2018-07-14T07:58:56.315Z,9.50
2018-07-14T08:01:31.846Z,7.10
2018-07-14T08:04:14.444Z,8.93
2018-07-14T08:06:47.159Z,8.10
2018-07-14T08:09:20.780Z,8.27
2018-07-14T08:11:54.321Z,6.50
2018-07-14T08:14:26.737Z,9.43
2018-07-14T08:17:02.772Z,9.43
2018-07-14T08:19:37.027Z,7.43
2018-07-14T08:22:35.915Z,9.50
2018-07-14T08:25:10.610Z,10.23
2018-07-14T08:27:46.612Z,7.23
2018-07-14T08:30:22.655Z,8.10
2018-07-14T08:33:00.035Z,6.37
2018-07-14T08:35:32.995Z,8.20
2018-07-14T08:38:06.472Z,11.00
2018-07-14T08:40:39.134Z,11.57
2018-07-14T08:43:17.245Z,9.50
2018-07-14T08:45:50.677Z,11.33
2018-07-14T08:48:27.851Z,13.07
2018-07-14T08:51:08.451Z,13.40
2018-07-14T08:53:45.358Z,10.82
2018-07-14T08:56:31.078Z,12.03
2018-07-14T08:59:04.601Z,12.60
2018-07-14T09:01:41.294Z,11.07
2018-07-14T09:04:15.358Z,10.80
2018-07-14T09:06:49.962Z,12.47
2018-07-14T09:09:24.437Z,12.07
2018-07-14T09:12:00.777Z,10.73
2018-07-14T09:14:40.796Z,10.98
2018-07-14T09:17:18.285Z,11.37
2018-07-14T09:19:52.671Z,9.00
2018-07-14T09:22:30.282Z,11.10
2018-07-14T09:25:04.702Z,8.63
2018-07-14T09:27:39.388Z,11.32
2018-07-14T09:30:15.403Z,11.10
2018-07-14T09:32:48.093Z,13.53
2018-07-14T09:35:20.635Z,12.03
2018-07-14T09:37:53.880Z,10.90
2018-07-14T09:40:30.598Z,11.27
2018-07-14T09:43:06.084Z,11.27
2018-07-14T09:45:38.936Z,10.80
2018-07-14T09:48:12.817Z,9.67
2018-07-14T09:50:50.907Z,10.53
2018-07-14T09:53:25.084Z,10.23
2018-07-14T09:55:59.801Z,10.67
2018-07-14T09:58:42.284Z,10.07
2018-07-14T10:01:18.162Z,13.53
2018-07-14T10:03:51.693Z,9.10
2018-07-14T10:06:28.681Z,12.60
2018-07-14T10:09:01.982Z,9.67
2018-07-14T10:11:36.746Z,13.00
2018-07-14T10:14:10.296Z,11.73
2018-07-14T10:16:44.090Z,11.27
2018-07-14T10:19:20.320Z,11.97
2018-07-14T10:21:57.342Z,15.23
2018-07-14T10:24:32.526Z,12.97
2018-07-14T10:27:08.657Z,11.80
2018-07-14T10:29:43.997Z,9.40
2018-07-14T10:32:20.723Z,10.50
2018-07-14T10:34:54.978Z,10.63
2018-07-14T10:37:29.462Z,11.77
2018-07-14T10:40:04.171Z,12.10
2018-07-14T10:42:39.299Z,9.83
2018-07-14T10:45:15.741Z,10.20
2018-07-14T10:47:49.065Z,10.90
2018-07-14T10:50:21.720Z,12.73
2018-07-14T10:52:56.654Z,13.37
2018-07-14T10:55:30.573Z,11.10
2018-07-14T10:58:05.932Z,11.67
2018-07-14T11:00:40.333Z,12.73
2018-07-14T11:03:13.621Z,12.77
2018-07-14T11:05:50.660Z,10.03
2018-07-14T11:08:23.584Z,9.50
2018-07-14T11:10:57.971Z,13.13
2018-07-14T11:13:31.785Z,10.33
2018-07-14T11:16:06.730Z,14.65
2018-07-14T11:18:41.997Z,16.07
2018-07-14T11:21:17.333Z,16.63
2018-07-14T11:23:50.818Z,11.17
2018-07-14T11:26:26.250Z,10.93
2018-07-14T11:29:00.752Z,12.87
2018-07-14T11:31:38.589Z,12.60
2018-07-14T11:34:12.793Z,9.23
2018-07-14T11:36:50.085Z,9.90
2018-07-14T11:39:30.642Z,10.53
2018-07-14T11:42:17.847Z,8.50
2018-07-14T11:44:51.986Z,8.93
2018-07-14T11:47:25.546Z,9.17
2018-07-14T11:50:00.931Z,10.80
2018-07-14T11:52:33.472Z,9.07
2018-07-14T11:55:06.187Z,9.80
2018-07-14T11:57:39.773Z,10.03
2018-07-14T12:00:15.480Z,11.47
2018-07-14T12:02:48.374Z,14.63
2018-07-14T12:05:25.046Z,9.17
2018-07-14T12:07:59.630Z,13.53
2018-07-14T12:10:33.117Z,11.70
2018-07-14T12:13:09.354Z,9.40
2018-07-14T12:15:44.551Z,11.57
2018-07-14T12:18:18.984Z,10.70
2018-07-14T12:20:52.821Z,8.43
2018-07-14T12:23:26.569Z,9.82
2018-07-14T12:25:59.879Z,8.10
2018-07-14T12:28:34.640Z,7.30
2018-07-14T12:31:09.086Z,7.07
2018-07-14T12:33:45.820Z,7.77
2018-07-14T12:36:19.009Z,7.33
2018-07-14T12:38:51.656Z,9.35
2018-07-14T12:41:25.668Z,7.43
2018-07-14T12:43:59.067Z,6.10
2018-07-14T12:46:32.220Z,8.23
2018-07-14T12:49:05.557Z,6.77
2018-07-14T12:51:39.324Z,9.57
2018-07-14T12:54:13.833Z,6.73
2018-07-14T12:56:49.136Z,9.37
2018-07-14T12:59:23.570Z,6.77
2018-07-14T13:02:01.306Z,7.63
2018-07-14T13:04:38.241Z,6.50
2018-07-14T13:07:13.141Z,5.97
2018-07-14T13:09:48.778Z,4.70
2018-07-14T13:12:21.745Z,4.67
2018-07-14T13:14:54.271Z,6.27
2018-07-14T13:17:26.683Z,4.93
2018-07-14T13:20:04.370Z,8.63
2018-07-14T13:22:40.648Z,6.37
2018-07-14T13:25:15.739Z,5.10
2018-07-14T13:27:50.352Z,4.30
2018-07-14T13:30:23.715Z,6.30
2018-07-14T13:32:57.232Z,7.97
2018-07-14T13:35:31.103Z,6.00
2018-07-14T13:38:05.681Z,5.67
2018-07-14T13:40:42.910Z,5.00
2018-07-14T13:43:18.224Z,5.70
2018-07-14T13:45:52.239Z,6.03
2018-07-14T13:48:27.726Z,4.87
2018-07-14T13:51:02.436Z,4.63
2018-07-14T13:53:37.713Z,3.87
2018-07-14T13:56:13.429Z,3.80
2018-07-14T13:59:27.528Z,4.77
2018-07-14T14:02:03.833Z,6.03
2018-07-14T14:04:40.101Z,4.73
2018-07-14T14:07:18.345Z,5.27
2018-07-14T14:09:54.730Z,4.90
2018-07-14T14:12:31.453Z,4.47
2018-07-14T14:15:09.801Z,4.70
2018-07-14T14:17:45.400Z,5.37
2018-07-14T14:20:20.648Z,6.87
2018-07-14T14:22:56.951Z,4.90
2018-07-14T14:25:31.765Z,5.23
2018-07-14T14:28:07.381Z,5.10
2018-07-14T14:30:41.517Z,4.97
2018-07-14T14:33:16.119Z,4.70
2018-07-14T14:35:50.530Z,4.23
2018-07-14T14:38:23.109Z,5.67
2018-07-14T14:40:56.529Z,4.70
2018-07-14T14:43:29.388Z,3.93
2018-07-14T14:46:03.832Z,4.20
2018-07-14T14:48:37.097Z,3.83
2018-07-14T14:51:13.699Z,5.83
2018-07-14T14:53:47.153Z,6.87
2018-07-14T14:56:20.269Z,4.83
2018-07-14T14:58:53.412Z,7.73
2018-07-14T15:01:26.238Z,5.77
2018-07-14T15:03:58.722Z,4.90
2018-07-14T15:06:34.779Z,4.00
2018-07-14T15:09:08.506Z,3.90
2018-07-14T15:11:45.645Z,7.30
2018-07-14T15:14:20.693Z,7.13
2018-07-14T15:17:03.675Z,5.17
2018-07-14T15:19:40.599Z,4.43
2018-07-14T15:22:14.997Z,5.13
2018-07-14T15:24:56.280Z,5.97
2018-07-14T15:27:34.470Z,5.60
2018-07-14T15:30:09.020Z,3.60
2018-07-14T15:32:45.528Z,4.33
2018-07-14T15:35:22.859Z,4.30
2018-07-14T15:37:55.936Z,4.93
2018-07-14T15:40:28.511Z,4.80
2018-07-14T15:43:01.706Z,5.45
2018-07-14T15:45:35.012Z,3.33
2018-07-14T15:48:24.106Z,6.67
2018-07-14T15:50:58.400Z,4.33
2018-07-14T15:53:31.264Z,3.50
2018-07-14T15:56:05.536Z,7.40
2018-07-14T15:58:40.987Z,6.37
2018-07-14T16:01:13.741Z,3.17
2018-07-14T16:03:46.742Z,5.07
2018-07-14T16:06:19.801Z,3.63
2018-07-14T16:08:53.549Z,5.63
2018-07-14T16:11:28.002Z,3.83
2018-07-14T16:14:02.393Z,4.20
2018-07-14T16:16:34.833Z,3.43
2018-07-14T16:19:11.052Z,2.93
2018-07-14T16:21:43.945Z,4.47
2018-07-14T16:24:16.511Z,3.03
2018-07-14T16:26:50.570Z,4.13
2018-07-14T16:29:25.662Z,5.10
2018-07-14T16:31:59.128Z,3.23
2018-07-14T16:34:33.824Z,4.07
2018-07-14T16:37:09.755Z,2.20
2018-07-14T16:39:43.262Z,2.70
2018-07-14T16:42:19.793Z,2.47
2018-07-14T16:44:56.861Z,5.33
2018-07-14T16:47:33.636Z,2.40
2018-07-14T16:50:08.724Z,3.13
2018-07-14T16:52:42.348Z,2.87
2018-07-14T16:55:17.348Z,2.83
2018-07-14T16:57:53.493Z,2.83
2018-07-14T17:00:30.184Z,4.07
2018-07-14T17:03:03.901Z,5.80
2018-07-14T17:05:38.937Z,2.60
2018-07-14T17:08:17.292Z,2.78
2018-07-14T17:10:52.336Z,4.07
2018-07-14T17:13:27.248Z,3.10
2018-07-14T17:16:01.097Z,3.83
2018-07-14T17:18:35.213Z,2.43
2018-07-14T17:21:07.774Z,2.60
2018-07-14T17:23:51.288Z,2.07
2018-07-14T17:26:25.726Z,2.40
2018-07-14T17:29:01.058Z,2.50
2018-07-14T17:31:35.531Z,2.63
2018-07-14T17:34:10.000Z,2.37
2018-07-14T17:36:42.573Z,4.10
2018-07-14T17:39:15.419Z,2.80
2018-07-14T17:41:47.957Z,2.90
2018-07-14T17:44:20.841Z,4.60
2018-07-14T17:46:55.612Z,2.97
2018-07-14T17:49:32.092Z,2.80
2018-07-14T17:52:12.674Z,2.60
2018-07-14T17:54:50.739Z,3.77
2018-07-14T17:57:28.282Z,3.43
2018-07-14T18:00:03.686Z,3.33
2018-07-14T18:02:40.150Z,2.73
2018-07-14T18:05:12.969Z,2.70
2018-07-14T18:07:47.211Z,3.00
2018-07-14T18:10:21.398Z,3.07
2018-07-14T18:12:54.128Z,2.80
2018-07-14T18:15:29.230Z,3.27
2018-07-14T18:18:07.169Z,2.80
2018-07-14T18:20:40.838Z,3.87
2018-07-14T18:23:16.883Z,3.50
2018-07-14T18:25:50.479Z,5.07
2018-07-14T18:28:23.724Z,3.07
2018-07-14T18:30:58.944Z,6.67
2018-07-14T18:33:32.289Z,2.87
2018-07-14T18:36:09.543Z,3.17
2018-07-14T18:38:44.366Z,4.10
2018-07-14T18:41:19.468Z,5.37
2018-07-14T18:43:53.023Z,2.40
2018-07-14T18:46:27.845Z,2.30
2018-07-14T18:49:02.462Z,2.77
2018-07-14T18:51:39.248Z,3.20
2018-07-14T18:54:12.835Z,3.20
2018-07-14T18:56:54.792Z,2.53
2018-07-14T18:59:29.295Z,2.30
2018-07-14T19:02:04.902Z,3.53
2018-07-14T19:04:39.221Z,2.65
2018-07-14T19:07:14.683Z,2.77
2018-07-14T19:09:49.135Z,3.83
2018-07-14T19:12:21.716Z,4.60
2018-07-14T19:14:54.898Z,2.92
2018-07-14T19:17:30.023Z,5.53
2018-07-14T19:20:03.165Z,2.80
2018-07-14T19:22:50.944Z,2.50
2018-07-14T19:25:27.216Z,2.57
2018-07-14T19:28:03.813Z,4.30
2018-07-14T19:30:38.187Z,2.63
2018-07-14T19:33:15.452Z,3.37
2018-07-14T19:35:50.163Z,2.57
2018-07-14T19:38:24.317Z,3.85
2018-07-14T19:40:58.443Z,3.50
2018-07-14T19:43:33.377Z,3.10
2018-07-14T19:46:06.096Z,4.20
2018-07-14T19:48:41.552Z,2.57
2018-07-14T19:51:16.295Z,3.67
2018-07-14T19:53:50.927Z,3.50
2018-07-14T19:56:26.034Z,4.17
2018-07-14T19:59:02.016Z,3.73
2018-07-14T20:01:37.994Z,2.53
2018-07-14T20:04:13.315Z,2.70
2018-07-14T20:06:57.371Z,3.27
2018-07-14T20:09:35.271Z,3.13
2018-07-14T20:12:09.192Z,2.87
2018-07-14T20:14:43.360Z,3.93
2018-07-14T20:17:22.088Z,4.30
2018-07-14T20:19:58.850Z,3.13
2018-07-14T20:22:36.879Z,3.50
2018-07-14T20:25:16.283Z,3.90
2018-07-14T20:28:06.360Z,3.72
2018-07-14T20:30:41.589Z,2.93
2018-07-14T20:33:14.907Z,3.37
2018-07-14T20:35:48.898Z,4.33
2018-07-14T20:38:24.464Z,3.30
2018-07-14T20:41:02.174Z,3.50
2018-07-14T20:43:36.971Z,4.90
2018-07-14T20:46:11.918Z,2.90
2018-07-14T20:48:51.587Z,2.80
2018-07-14T20:51:26.459Z,4.70
2018-07-14T20:54:02.057Z,4.67
2018-07-14T20:56:37.709Z,3.00
2018-07-14T20:59:19.600Z,5.60
2018-07-14T21:01:58.948Z,3.10
2018-07-14T21:04:39.379Z,3.67
2018-07-14T21:07:18.438Z,3.73
2018-07-14T21:09:58.711Z,5.27
2018-07-14T21:12:37.857Z,3.53
2018-07-14T21:15:23.119Z,3.03
2018-07-14T21:18:06.555Z,4.67
2018-07-14T21:20:47.859Z,3.40
2018-07-14T21:23:22.194Z,3.40
2018-07-14T21:25:56.185Z,3.53
2018-07-14T21:28:32.602Z,3.57
2018-07-14T21:31:10.459Z,4.82
2018-07-14T21:33:43.681Z,3.27
2018-07-14T21:36:17.980Z,3.63
2018-07-14T21:38:55.254Z,4.90
2018-07-14T21:41:31.988Z,3.27
2018-07-14T21:44:08.177Z,3.73
2018-07-14T21:46:42.945Z,4.23
2018-07-14T21:49:16.273Z,3.97
2018-07-14T21:51:56.947Z,5.47
2018-07-14T21:54:35.361Z,4.30
2018-07-14T21:57:08.568Z,3.17
2018-07-14T21:59:44.039Z,6.00
2018-07-14T22:02:18.388Z,3.53
2018-07-14T22:04:58.817Z,4.10
2018-07-14T22:07:51.445Z,4.47
2018-07-14T22:10:32.417Z,3.77
2018-07-14T22:13:04.884Z,6.10
2018-07-14T22:15:46.062Z,5.17
2018-07-14T22:19:24.124Z,5.07
2018-07-14T22:21:57.857Z,5.13
2018-07-14T22:24:41.268Z,4.87
2018-07-14T22:27:16.563Z,4.40
2018-07-14T22:29:53.318Z,4.20
2018-07-14T22:32:28.006Z,3.93
2018-07-14T22:35:08.767Z,3.53
2018-07-14T22:37:44.009Z,3.10
2018-07-14T22:40:17.741Z,5.10
2018-07-14T22:42:51.637Z,3.10
2018-07-14T22:45:26.250Z,3.47
2018-07-14T22:47:58.725Z,3.97
2018-07-14T22:50:36.551Z,3.30
2018-07-14T22:53:09.950Z,3.87
2018-07-14T22:55:45.969Z,4.00
2018-07-14T22:58:19.710Z,3.47
2018-07-14T23:00:53.263Z,3.20
2018-07-14T23:03:26.104Z,4.00
2018-07-14T23:05:58.933Z,4.60
2018-07-14T23:08:32.315Z,4.93
2018-07-14T23:11:05.582Z,3.40
2018-07-14T23:13:40.637Z,3.93
2018-07-14T23:16:13.718Z,3.03
2018-07-14T23:18:47.889Z,3.70
2018-07-14T23:21:21.638Z,7.30
2018-07-14T23:23:55.847Z,4.77
2018-07-14T23:26:29.769Z,3.17
2018-07-14T23:29:02.700Z,3.27
2018-07-14T23:31:35.309Z,3.30
2018-07-14T23:34:10.045Z,4.03
2018-07-14T23:36:45.737Z,3.10
2018-07-14T23:39:20.079Z,3.57
2018-07-14T23:41:55.920Z,4.60
2018-07-14T23:44:30.097Z,3.53
2018-07-14T23:47:02.902Z,3.10
2018-07-14T23:49:35.437Z,5.00
2018-07-14T23:52:09.678Z,4.80
2018-07-14T23:54:44.058Z,4.20
2018-07-14T23:57:18.668Z,6.50
2018-07-14T23:59:52.620Z,3.97
